Time;durP1;ratioP1;P1;durP2;ratioP2;P2;SDS_P1;SDS_P2;PMS_P1;PMS_P2;Temp;Humidity;BMP_temperature;BMP_pressure;BME280_temperature;BME280_humidity;BME280_pressure;Samples;Min_cycle;Max_cycle;Signal;HPM_P1;HPM_P2
2024/01/07 00:00:10;;;;;;;15.13;7.43;;;;;4.90;95447.00;;;;8270531;28;20206;-77
2024/01/07 00:04:13;;;;;;;15.27;8.50;;;;;4.80;95453.00;;;;8266470;28;20243;-78
2024/01/07 00:08:18;;;;;;;15.13;8.33;;;;;4.80;95452.00;;;;8266457;28;20676;-77
2024/01/07 00:12:21;;;;;;;15.00;8.57;;;;;4.80;95450.00;;;;8266298;28;20295;-78
2024/01/07 00:16:24;;;;;;;14.97;8.50;;;;;4.80;95460.00;;;;8267141;28;20194;-76
2024/01/07 00:20:27;;;;;;;13.97;8.60;;;;;4.70;95463.00;;;;8267683;28;20198;-76
2024/01/07 00:24:32;;;;;;;22.43;9.57;;;;;4.60;95459.00;;;;8267253;28;20224;-76
2024/01/07 00:28:35;;;;;;;15.50;8.33;;;;;4.60;95461.00;;;;8267449;28;20312;-74
2024/01/07 00:32:38;;;;;;;17.77;7.77;;;;;4.50;95463.00;;;;8265563;28;20731;-74
2024/01/07 00:36:41;;;;;;;13.33;8.37;;;;;4.50;95463.00;;;;8269633;28;20249;-75
2024/01/07 00:40:46;;;;;;;17.47;8.77;;;;;4.40;95460.00;;;;8266612;28;20206;-75
2024/01/07 00:44:49;;;;;;;15.43;8.47;;;;;4.40;95458.00;;;;8269219;28;20289;-75
2024/01/07 00:48:52;;;;;;;17.00;8.93;;;;;4.40;95461.00;;;;8267005;28;20318;-74
2024/01/07 00:52:55;;;;;;;14.77;8.57;;;;;4.40;95470.00;;;;8269279;28;20192;-74
2024/01/07 00:57:00;;;;;;;14.90;7.30;;;;;4.30;95460.00;;;;8267773;28;20285;-74
2024/01/07 01:01:04;;;;;;;17.67;9.37;;;;;4.30;95472.00;;;;8269362;28;20236;-73
2024/01/07 01:05:08;;;;;;;18.77;8.93;;;;;4.30;95473.00;;;;8257158;28;20647;-74
2024/01/07 01:09:11;;;;;;;20.23;9.87;;;;;4.30;95477.00;;;;8265159;28;20690;-73
2024/01/07 01:13:15;;;;;;;16.43;9.20;;;;;4.30;95471.00;;;;8263288;28;20198;-73
2024/01/07 01:17:18;;;;;;;20.53;9.23;;;;;4.30;95482.00;;;;8265362;28;20202;-73
2024/01/07 01:21:22;;;;;;;19.83;9.53;;;;;4.30;95479.00;;;;8265121;28;20198;-73
2024/01/07 01:25:27;;;;;;;26.43;9.73;;;;;4.30;95484.00;;;;8263798;28;20880;-73
2024/01/07 01:29:31;;;;;;;21.23;10.13;;;;;4.30;95483.00;;;;8260970;28;20229;-74
2024/01/07 01:33:34;;;;;;;17.00;9.70;;;;;4.30;95491.00;;;;8259050;28;20206;-74
2024/01/07 01:37:37;;;;;;;21.03;10.20;;;;;4.30;95488.00;;;;8262400;28;20289;-74
2024/01/07 01:41:41;;;;;;;15.53;7.90;;;;;4.30;95486.00;;;;8262363;28;20225;-75
2024/01/07 01:45:45;;;;;;;20.33;9.50;;;;;4.30;95484.00;;;;8265488;28;21085;-74
2024/01/07 01:49:48;;;;;;;20.70;10.33;;;;;4.30;95484.00;;;;8261481;28;20307;-73
2024/01/07 01:53:52;;;;;;;18.30;9.93;;;;;4.30;95488.00;;;;8263530;28;20198;-73
2024/01/07 01:57:59;;;;;;;19.33;9.57;;;;;4.20;95479.00;;;;8261833;28;20202;-74
2024/01/07 02:02:04;;;;;;;20.77;10.57;;;;;4.20;95486.00;;;;8261569;28;20236;-74
2024/01/07 02:06:08;;;;;;;20.63;10.47;;;;;4.20;95481.00;;;;8263238;28;20272;-73
2024/01/07 02:10:14;;;;;;;26.03;11.33;;;;;4.20;95483.00;;;;8264178;28;20229;-73
2024/01/07 02:14:22;;;;;;;23.20;10.77;;;;;4.10;95486.00;;;;8262289;28;20202;-75
2024/01/07 02:18:26;;;;;;;27.67;12.10;;;;;4.10;95493.00;;;;8263671;28;20201;-75
2024/01/07 02:22:30;;;;;;;22.77;11.37;;;;;4.10;95491.00;;;;8268892;28;20198;-75
2024/01/07 02:26:34;;;;;;;18.70;9.37;;;;;4.10;95493.00;;;;8270195;28;20201;-74
2024/01/07 02:30:37;;;;;;;28.07;11.73;;;;;4.10;95487.00;;;;8268226;28;20203;-73
2024/01/07 02:34:40;;;;;;;25.67;12.03;;;;;4.00;95487.00;;;;8269641;28;20300;-74
2024/01/07 02:38:44;;;;;;;28.53;12.47;;;;;4.00;95481.00;;;;8267250;28;20205;-75
2024/01/07 02:42:48;;;;;;;24.80;12.97;;;;;4.00;95495.00;;;;8267646;28;20293;-74
2024/01/07 02:46:51;;;;;;;19.73;9.30;;;;;4.00;95486.00;;;;8267179;28;20210;-74
2024/01/07 02:50:54;;;;;;;23.93;10.63;;;;;3.90;95490.00;;;;8269100;28;20682;-75
2024/01/07 02:54:57;;;;;;;25.93;12.70;;;;;3.90;95491.00;;;;8267673;28;20202;-74
2024/01/07 02:59:02;;;;;;;23.37;11.00;;;;;3.90;95484.00;;;;8269689;28;20202;-75
2024/01/07 03:03:05;;;;;;;30.23;14.10;;;;;3.90;95486.00;;;;8341880;22;20259;-74
2024/01/07 03:07:08;;;;;;;36.13;14.67;;;;;3.90;95490.00;;;;8289121;28;20221;-75
2024/01/07 03:11:12;;;;;;;19.93;9.00;;;;;3.90;95495.00;;;;8293554;28;20190;-73
2024/01/07 03:15:16;;;;;;;23.20;11.03;;;;;3.90;95489.00;;;;8293211;28;20788;-75
2024/01/07 03:19:20;;;;;;;25.87;11.83;;;;;3.80;95486.00;;;;8294313;28;20193;-75
2024/01/07 03:23:23;;;;;;;27.63;12.60;;;;;3.80;95497.00;;;;8295163;28;20232;-75
2024/01/07 03:27:27;;;;;;;22.40;10.73;;;;;3.80;95496.00;;;;8293924;28;20253;-75
2024/01/07 03:31:32;;;;;;;36.57;13.73;;;;;3.80;95490.00;;;;8292451;28;20647;-73
2024/01/07 03:35:35;;;;;;;37.00;13.90;;;;;3.70;95495.00;;;;8302960;28;20216;-75
2024/01/07 03:39:38;;;;;;;30.90;14.47;;;;;3.70;95500.00;;;;8304758;28;20747;-75
2024/01/07 03:43:41;;;;;;;35.60;14.70;;;;;3.70;95498.00;;;;8302832;28;20908;-74
2024/01/07 03:47:46;;;;;;;32.60;13.87;;;;;3.70;95503.00;;;;8303136;28;20259;-72
2024/01/07 03:51:49;;;;;;;30.73;13.17;;;;;3.70;95508.00;;;;8304095;28;20197;-75
2024/01/07 03:55:52;;;;;;;31.47;14.23;;;;;3.60;95507.00;;;;8303104;28;20821;-74
2024/01/07 03:59:55;;;;;;;28.07;12.13;;;;;3.60;95512.00;;;;8303240;28;20215;-75
2024/01/07 04:04:00;;;;;;;30.70;10.50;;;;;3.60;95516.00;;;;8289089;28;20224;-75
2024/01/07 04:08:03;;;;;;;26.50;11.70;;;;;3.60;95525.00;;;;8278400;28;20230;-75
2024/01/07 04:12:07;;;;;;;28.63;12.70;;;;;3.50;95527.00;;;;8278992;28;20210;-75
2024/01/07 04:16:17;;;;;;;35.10;13.03;;;;;3.50;95528.00;;;;8279909;28;20244;-74
2024/01/07 04:20:23;;;;;;;25.17;11.33;;;;;3.50;95528.00;;;;8279817;28;20237;-75
2024/01/07 04:24:26;;;;;;;19.80;9.80;;;;;3.50;95535.00;;;;8282787;28;20219;-73
2024/01/07 04:28:30;;;;;;;26.17;11.37;;;;;3.50;95538.00;;;;8279105;28;20254;-73
2024/01/07 04:32:33;;;;;;;30.33;12.80;;;;;3.40;95538.00;;;;8280848;28;20920;-74
2024/01/07 04:36:37;;;;;;;30.67;12.33;;;;;3.40;95558.00;;;;8279945;28;20205;-75
2024/01/07 04:40:41;;;;;;;23.23;9.73;;;;;3.50;95545.00;;;;8276998;28;20768;-77
2024/01/07 04:44:44;;;;;;;32.87;14.30;;;;;3.50;95555.00;;;;8280574;28;20204;-75
2024/01/07 04:48:47;;;;;;;24.60;10.67;;;;;3.50;95554.00;;;;8278267;28;20703;-73
2024/01/07 04:52:51;;;;;;;34.40;13.13;;;;;3.50;95556.00;;;;8278283;28;20247;-76
2024/01/07 04:56:55;;;;;;;28.53;13.47;;;;;3.50;95549.00;;;;8277579;28;20198;-76
2024/01/07 05:00:58;;;;;;;32.47;12.20;;;;;3.50;95565.00;;;;8280601;28;20212;-74
2024/01/07 05:05:01;;;;;;;21.83;10.43;;;;;3.50;95579.00;;;;8280074;28;20236;-76
2024/01/07 05:09:05;;;;;;;31.80;14.60;;;;;3.50;95577.00;;;;8279636;28;20308;-75
2024/01/07 05:13:08;;;;;;;35.40;14.00;;;;;3.40;95580.00;;;;8276405;28;20936;-77
2024/01/07 05:17:12;;;;;;;34.90;13.80;;;;;3.40;95574.00;;;;8280111;28;20201;-74
2024/01/07 05:21:15;;;;;;;33.50;13.20;;;;;3.30;95571.00;;;;8276140;28;20198;-77
2024/01/07 05:25:20;;;;;;;27.87;11.83;;;;;3.30;95572.00;;;;8279419;28;20202;-76
2024/01/07 05:29:23;;;;;;;31.17;13.00;;;;;3.30;95582.00;;;;8276308;28;20229;-76
2024/01/07 05:33:26;;;;;;;28.77;11.40;;;;;3.30;95581.00;;;;8278082;28;20214;-74
2024/01/07 05:37:29;;;;;;;25.50;10.67;;;;;3.30;95585.00;;;;8278650;28;20206;-72
2024/01/07 05:41:34;;;;;;;26.33;10.83;;;;;3.20;95587.00;;;;8276706;28;20225;-73
2024/01/07 05:45:37;;;;;;;22.87;9.87;;;;;3.20;95592.00;;;;8275631;28;20200;-74
2024/01/07 05:49:40;;;;;;;28.60;12.30;;;;;3.20;95589.00;;;;8276553;28;20283;-73
2024/01/07 05:53:44;;;;;;;27.53;12.50;;;;;3.20;95594.00;;;;8280034;28;20312;-76
2024/01/07 05:57:49;;;;;;;29.67;11.73;;;;;3.20;95605.00;;;;8284988;28;20235;-75
2024/01/07 06:01:52;;;;;;;26.50;10.47;;;;;3.20;95603.00;;;;8285010;28;20428;-74
2024/01/07 06:05:55;;;;;;;36.23;13.27;;;;;3.20;95610.00;;;;8283622;28;20202;-74
2024/01/07 06:10:00;;;;;;;34.23;13.67;;;;;3.20;95607.00;;;;8281393;28;20234;-75
2024/01/07 06:14:05;;;;;;;23.60;9.20;;;;;3.20;95613.00;;;;8285182;28;20297;-74
2024/01/07 06:18:08;;;;;;;20.47;9.47;;;;;3.10;95612.00;;;;8283454;28;20201;-72
2024/01/07 06:22:12;;;;;;;24.30;9.27;;;;;3.10;95607.00;;;;8284179;28;20202;-71
2024/01/07 06:26:16;;;;;;;26.07;11.17;;;;;3.10;95609.00;;;;8284038;28;20201;-72
2024/01/07 06:30:20;;;;;;;22.63;9.67;;;;;3.00;95611.00;;;;8283315;28;20654;-72
2024/01/07 06:34:23;;;;;;;28.37;10.23;;;;;3.00;95618.00;;;;8286010;28;20252;-72
2024/01/07 06:38:27;;;;;;;25.57;10.07;;;;;3.00;95626.00;;;;8279178;28;20209;-73
2024/01/07 06:42:30;;;;;;;27.33;10.57;;;;;3.00;95623.00;;;;8274700;28;20210;-75
2024/01/07 06:46:35;;;;;;;22.20;10.93;;;;;3.00;95623.00;;;;8279352;28;20302;-72
2024/01/07 06:50:38;;;;;;;28.00;10.37;;;;;3.10;95629.00;;;;8276344;28;20294;-77
2024/01/07 06:54:41;;;;;;;26.43;10.60;;;;;3.10;95638.00;;;;8278547;28;20760;-76
2024/01/07 06:58:45;;;;;;;22.90;9.47;;;;;3.10;95636.00;;;;8279494;28;22345;-74
2024/01/07 07:02:49;;;;;;;29.50;12.60;;;;;3.10;95638.00;;;;8273899;28;20238;-74
2024/01/07 07:06:53;;;;;;;25.33;11.07;;;;;3.10;95655.00;;;;8269666;28;20202;-75
2024/01/07 07:10:56;;;;;;;21.53;9.40;;;;;3.00;95650.00;;;;8273587;28;20233;-76
2024/01/07 07:14:59;;;;;;;27.07;12.03;;;;;3.00;95649.00;;;;8277386;28;20212;-77
2024/01/07 07:19:04;;;;;;;25.63;11.57;;;;;3.00;95657.00;;;;8275852;28;20236;-75
2024/01/07 07:23:07;;;;;;;26.60;11.20;;;;;2.90;95655.00;;;;8276212;28;20205;-76
2024/01/07 07:27:10;;;;;;;20.00;8.57;;;;;2.90;95651.00;;;;8276856;28;20325;-76
2024/01/07 07:31:14;;;;;;;15.93;7.73;;;;;2.80;95660.00;;;;8272844;28;20250;-76
2024/01/07 07:35:18;;;;;;;27.00;11.67;;;;;2.80;95672.00;;;;8277942;28;20217;-76
2024/01/07 07:39:22;;;;;;;21.13;9.80;;;;;2.80;95684.00;;;;8279549;28;20206;-77
2024/01/07 07:43:25;;;;;;;17.30;8.63;;;;;2.80;95687.00;;;;8279455;28;20207;-76
2024/01/07 07:47:28;;;;;;;23.20;10.17;;;;;2.80;95696.00;;;;8278389;28;20205;-75
2024/01/07 07:51:36;;;;;;;19.67;7.77;;;;;2.80;95703.00;;;;8277006;28;20225;-75
2024/01/07 07:55:42;;;;;;;15.53;8.43;;;;;2.70;95704.00;;;;8275186;28;20228;-76
2024/01/07 07:59:45;;;;;;;23.43;9.93;;;;;2.70;95698.00;;;;8278087;28;20710;-79
2024/01/07 08:03:48;;;;;;;16.07;6.90;;;;;2.70;95718.00;;;;8273771;28;20257;-78
2024/01/07 08:07:53;;;;;;;23.23;10.20;;;;;2.70;95718.00;;;;8277857;28;20825;-76
2024/01/07 08:11:56;;;;;;;15.83;7.53;;;;;2.70;95723.00;;;;8275602;28;20225;-76
2024/01/07 08:15:59;;;;;;;19.77;7.83;;;;;2.70;95719.00;;;;8270876;28;20209;-76
2024/01/07 08:20:03;;;;;;;18.57;9.53;;;;;2.60;95725.00;;;;8276515;28;20610;-78
2024/01/07 08:24:13;;;;;;;15.20;6.70;;;;;2.60;95716.00;;;;8272352;28;20662;-78
2024/01/07 08:28:16;;;;;;;16.73;7.57;;;;;2.60;95724.00;;;;8272813;28;20298;-78
2024/01/07 08:32:22;;;;;;;15.13;7.70;;;;;2.60;95724.00;;;;8275993;28;21008;-79
2024/01/07 08:36:27;;;;;;;13.00;6.47;;;;;2.70;95732.00;;;;8276573;28;20294;-79
2024/01/07 08:40:34;;;;;;;18.30;10.03;;;;;2.60;95730.00;;;;8270228;28;20565;-78
2024/01/07 08:44:37;;;;;;;14.37;7.23;;;;;2.70;95745.00;;;;8273217;28;20203;-78
2024/01/07 08:48:40;;;;;;;16.93;8.33;;;;;2.70;95739.00;;;;8272385;28;20296;-78
2024/01/07 08:52:43;;;;;;;16.43;8.50;;;;;2.70;95754.00;;;;8270790;28;20244;-78
2024/01/07 08:56:51;;;;;;;17.40;9.10;;;;;2.70;95761.00;;;;8273649;28;20599;-79
2024/01/07 09:00:54;;;;;;;16.70;8.13;;;;;2.70;95754.00;;;;8274048;28;20205;-79
2024/01/07 09:04:58;;;;;;;13.90;6.37;;;;;2.70;95770.00;;;;8270429;28;22086;-79
2024/01/07 09:09:01;;;;;;;17.97;9.07;;;;;2.70;95777.00;;;;8274041;28;20206;-79
2024/01/07 09:13:06;;;;;;;12.97;7.20;;;;;2.70;95785.00;;;;8274187;28;20224;-80
2024/01/07 09:17:09;;;;;;;19.93;8.87;;;;;2.60;95784.00;;;;8274089;28;20222;-80
2024/01/07 09:21:13;;;;;;;20.37;9.83;;;;;2.70;95793.00;;;;8268969;28;20239;-79
2024/01/07 09:25:17;;;;;;;16.93;8.80;;;;;2.70;95787.00;;;;8266772;28;20607;-78
2024/01/07 09:29:23;;;;;;;16.83;9.00;;;;;2.60;95795.00;;;;8275272;28;20205;-79
2024/01/07 09:33:30;;;;;;;19.07;9.27;;;;;2.60;95804.00;;;;8272966;28;22385;-79
2024/01/07 09:37:35;;;;;;;22.37;10.83;;;;;2.60;95800.00;;;;8270136;28;20824;-79
2024/01/07 09:41:39;;;;;;;20.83;10.07;;;;;2.60;95801.00;;;;8277187;28;20831;-79
2024/01/07 09:45:47;;;;;;;25.50;12.77;;;;;2.50;95805.00;;;;8272915;28;20202;-79
2024/01/07 09:49:51;;;;;;;20.70;11.40;;;;;2.50;95804.00;;;;8267551;28;20244;-79
2024/01/07 09:54:06;;;;;;;21.73;9.93;;;;;2.40;95802.00;;;;8269198;28;20670;-80
2024/01/07 09:58:11;;;;;;;28.93;10.67;;;;;2.40;95799.00;;;;8270063;28;20704;-79
2024/01/07 10:02:16;;;;;;;19.33;10.43;;;;;2.30;95815.00;;;;8269800;28;20229;-79
2024/01/07 10:06:21;;;;;;;23.43;11.13;;;;;2.20;95816.00;;;;8271384;28;20202;-78
2024/01/07 10:10:24;;;;;;;20.50;9.77;;;;;2.20;95819.00;;;;8267616;28;20229;-79
2024/01/07 10:14:28;;;;;;;19.00;8.43;;;;;2.20;95810.00;;;;8273456;28;20263;-79
2024/01/07 10:18:36;;;;;;;23.97;11.33;;;;;2.20;95813.00;;;;8269962;28;20208;-78
2024/01/07 10:22:39;;;;;;;19.83;9.77;;;;;2.10;95817.00;;;;8268558;28;20205;-78
2024/01/07 10:26:43;;;;;;;24.10;11.77;;;;;2.10;95815.00;;;;8268501;28;20211;-78
2024/01/07 10:30:50;;;;;;;23.43;11.37;;;;;2.10;95817.00;;;;8271609;28;20320;-78
2024/01/07 10:35:02;;;;;;;13.57;7.63;;;;;2.00;95823.00;;;;8267141;28;20206;-79
2024/01/07 10:39:06;;;;;;;22.27;10.63;;;;;2.00;95832.00;;;;8268215;28;20643;-79
2024/01/07 10:43:10;;;;;;;23.57;10.83;;;;;2.00;95838.00;;;;8273816;28;20201;-79
2024/01/07 10:47:15;;;;;;;24.17;9.37;;;;;2.00;95836.00;;;;8276127;28;20649;-79
2024/01/07 10:51:22;;;;;;;31.90;14.93;;;;;2.00;95834.00;;;;8270827;28;20255;-77
2024/01/07 10:55:26;;;;;;;20.00;9.43;;;;;1.90;95847.00;;;;8278246;28;20672;-78
2024/01/07 10:59:40;;;;;;;28.50;12.20;;;;;1.90;95840.00;;;;8274616;28;20668;-77
2024/01/07 11:03:57;;;;;;;27.83;12.03;;;;;1.90;95845.00;;;;8268523;28;20244;-76
2024/01/07 11:08:08;;;;;;;19.00;9.10;;;;;1.90;95837.00;;;;8277825;28;20765;-77
2024/01/07 11:12:12;;;;;;;28.67;11.27;;;;;1.80;95843.00;;;;8278549;28;20352;-76
2024/01/07 11:16:43;;;;;;;21.60;10.23;;;;;1.80;95848.00;;;;8276932;28;20219;-77
2024/01/07 11:20:47;;;;;;;31.67;12.97;;;;;1.80;95855.00;;;;8275428;28;20282;-78
2024/01/07 11:24:52;;;;;;;16.23;8.27;;;;;1.80;95863.00;;;;8278289;28;21111;-76
2024/01/07 11:28:58;;;;;;;32.47;12.57;;;;;1.80;95854.00;;;;8270759;28;20237;-78
2024/01/07 11:33:01;;;;;;;27.90;12.50;;;;;1.80;95864.00;;;;8271113;28;20240;-78
2024/01/07 11:37:08;;;;;;;33.70;15.60;;;;;1.80;95857.00;;;;8275486;28;20233;-78
2024/01/07 11:41:15;;;;;;;37.57;13.27;;;;;1.80;95856.00;;;;8279645;28;20212;-79
2024/01/07 11:45:18;;;;;;;31.77;13.57;;;;;1.70;95857.00;;;;8277671;28;20205;-80
2024/01/07 11:49:22;;;;;;;29.73;11.70;;;;;1.80;95864.00;;;;8285873;28;20681;-77
2024/01/07 11:53:25;;;;;;;24.43;11.03;;;;;1.70;95865.00;;;;8301291;28;20220;-77
2024/01/07 11:57:32;;;;;;;20.97;10.10;;;;;1.70;95865.00;;;;8301207;28;20201;-77
2024/01/07 12:01:35;;;;;;;15.50;7.87;;;;;1.70;95871.00;;;;8303753;28;20189;-77
2024/01/07 12:05:38;;;;;;;17.97;8.23;;;;;1.70;95869.00;;;;8302866;28;20235;-77
2024/01/07 12:09:47;;;;;;;24.20;10.47;;;;;1.70;95883.00;;;;8302095;28;20635;-77
2024/01/07 12:13:52;;;;;;;27.27;12.57;;;;;1.70;95879.00;;;;8300784;28;20255;-77
2024/01/07 12:18:01;;;;;;;16.57;9.73;;;;;1.70;95877.00;;;;8301025;28;20536;-77
2024/01/07 12:22:09;;;;;;;39.33;14.73;;;;;1.70;95879.00;;;;8301860;28;20181;-77
2024/01/07 12:26:13;;;;;;;27.03;12.83;;;;;1.70;95885.00;;;;8300669;28;20630;-76
2024/01/07 12:30:19;;;;;;;33.80;16.20;;;;;1.70;95895.00;;;;8301156;28;20280;-78
2024/01/07 12:34:24;;;;;;;40.57;16.87;;;;;1.70;95891.00;;;;8299954;28;20185;-78
2024/01/07 12:38:27;;;;;;;30.20;12.17;;;;;1.70;95882.00;;;;8301415;28;20193;-77
2024/01/07 12:42:30;;;;;;;20.60;9.47;;;;;1.80;95884.00;;;;8300241;28;20208;-78
2024/01/07 12:46:35;;;;;;;31.10;13.83;;;;;1.70;95896.00;;;;8300374;28;20214;-77
2024/01/07 12:50:38;;;;;;;23.07;10.80;;;;;1.70;95890.00;;;;8300411;28;20232;-77
2024/01/07 12:54:41;;;;;;;14.87;7.63;;;;;1.70;95895.00;;;;8301494;28;20275;-79
2024/01/07 12:58:44;;;;;;;27.67;12.00;;;;;1.70;95901.00;;;;8300416;28;20639;-77
2024/01/07 13:02:49;;;;;;;21.10;9.90;;;;;1.80;95898.00;;;;8300626;28;20559;-78
2024/01/07 13:06:56;;;;;;;27.73;12.20;;;;;1.80;95905.00;;;;8299042;28;20235;-78
2024/01/07 13:11:00;;;;;;;22.97;12.00;;;;;1.80;95910.00;;;;8300013;28;20279;-79
2024/01/07 13:15:04;;;;;;;23.10;9.03;;;;;1.80;95920.00;;;;8299422;28;20232;-78
2024/01/07 13:19:10;;;;;;;27.80;12.53;;;;;1.70;95918.00;;;;8299265;28;20197;-79
2024/01/07 13:23:14;;;;;;;21.17;9.77;;;;;1.70;95929.00;;;;8299180;28;20183;-78
2024/01/07 13:27:17;;;;;;;28.63;13.50;;;;;1.70;95931.00;;;;8299630;28;20193;-76
2024/01/07 13:31:21;;;;;;;31.23;11.83;;;;;1.60;95948.00;;;;8300336;28;20215;-79
2024/01/07 13:35:26;;;;;;;29.20;12.47;;;;;1.50;95947.00;;;;8299950;28;20252;-79
2024/01/07 13:39:30;;;;;;;25.03;9.07;;;;;1.50;95943.00;;;;8298242;28;20209;-81
2024/01/07 13:43:34;;;;;;;23.60;11.57;;;;;1.50;95957.00;;;;8298587;28;20205;-79
2024/01/07 13:47:37;;;;;;;36.23;15.33;;;;;1.40;95952.00;;;;8298647;28;20563;-79
2024/01/07 13:51:42;;;;;;;32.50;12.70;;;;;1.40;95966.00;;;;8299959;28;20724;-78
2024/01/07 13:55:46;;;;;;;26.13;12.50;;;;;1.30;95967.00;;;;8299095;28;20198;-78
2024/01/07 13:59:49;;;;;;;25.87;11.60;;;;;1.30;95958.00;;;;8298678;28;20528;-79
2024/01/07 14:03:53;;;;;;;17.13;8.60;;;;;1.30;95980.00;;;;8299239;28;20229;-79
2024/01/07 14:07:58;;;;;;;27.00;12.63;;;;;1.30;95975.00;;;;8298373;28;20196;-79
2024/01/07 14:12:02;;;;;;;27.03;9.33;;;;;1.30;95987.00;;;;8298681;28;20557;-78
2024/01/07 14:16:06;;;;;;;36.73;14.70;;;;;1.20;95986.00;;;;8301762;28;20629;-78
2024/01/07 14:20:10;;;;;;;28.37;11.27;;;;;1.20;95992.00;;;;8305154;28;20250;-78
2024/01/07 14:24:15;;;;;;;37.47;13.90;;;;;1.20;95991.00;;;;8302811;28;20200;-79
2024/01/07 14:28:18;;;;;;;38.23;14.93;;;;;1.20;95995.00;;;;8303403;28;20197;-77
2024/01/07 14:32:23;;;;;;;37.57;13.70;;;;;1.20;96004.00;;;;8304166;28;20224;-79
2024/01/07 14:36:27;;;;;;;34.53;12.27;;;;;1.20;96013.00;;;;8300899;28;20206;-77
2024/01/07 14:40:31;;;;;;;28.33;12.40;;;;;1.20;96013.00;;;;8303988;28;20287;-79
2024/01/07 14:44:34;;;;;;;41.97;14.23;;;;;1.10;96023.00;;;;8304028;28;20208;-80
2024/01/07 14:48:53;;;;;;;31.90;12.13;;;;;1.10;96027.00;;;;8299125;28;20212;-79
2024/01/07 14:52:56;;;;;;;40.27;14.50;;;;;1.10;96032.00;;;;8302298;28;20236;-78
2024/01/07 14:57:02;;;;;;;26.60;11.13;;;;;1.10;96031.00;;;;8303060;28;20204;-79
2024/01/07 15:01:05;;;;;;;30.63;12.13;;;;;1.10;96047.00;;;;8302746;28;20200;-78
2024/01/07 15:05:09;;;;;;;25.30;9.90;;;;;1.00;96045.00;;;;8301794;28;20229;-78
2024/01/07 15:09:14;;;;;;;36.00;13.00;;;;;1.00;96062.00;;;;8300620;28;20224;-78
2024/01/07 15:13:19;;;;;;;26.83;10.70;;;;;0.90;96059.00;;;;8301902;28;20231;-75
2024/01/07 15:17:24;;;;;;;33.30;11.20;;;;;0.90;96068.00;;;;8302717;28;20181;-75
2024/01/07 15:21:27;;;;;;;23.17;9.00;;;;;0.90;96057.00;;;;8302777;28;20637;-76
2024/01/07 15:25:31;;;;;;;26.80;9.70;;;;;0.90;96077.00;;;;8302625;28;20195;-76
2024/01/07 15:29:46;;;;;;;34.23;12.37;;;;;0.80;96065.00;;;;8302071;28;20288;-75
2024/01/07 15:33:49;;;;;;;25.03;10.20;;;;;0.80;96075.00;;;;8302386;28;20248;-75
2024/01/07 15:37:54;;;;;;;22.60;9.30;;;;;0.70;96075.00;;;;8301730;28;20201;-76
2024/01/07 15:41:58;;;;;;;23.93;9.27;;;;;0.70;96081.00;;;;8301545;28;20642;-75
2024/01/07 15:46:03;;;;;;;28.70;9.70;;;;;0.70;96080.00;;;;8302069;28;20321;-74
2024/01/07 15:50:07;;;;;;;28.20;10.13;;;;;0.60;96081.00;;;;8301049;28;20287;-76
2024/01/07 15:54:10;;;;;;;21.87;8.90;;;;;0.60;96088.00;;;;8300842;28;20274;-76
2024/01/07 15:58:16;;;;;;;24.53;8.73;;;;;0.60;96091.00;;;;8302604;28;20282;-76
2024/01/07 16:02:21;;;;;;;28.80;10.30;;;;;0.60;96092.00;;;;8301853;28;20310;-77
2024/01/07 16:06:24;;;;;;;31.23;10.47;;;;;0.60;96100.00;;;;8300322;28;20236;-77
2024/01/07 16:10:27;;;;;;;24.27;10.17;;;;;0.60;96106.00;;;;8299242;28;20620;-76
2024/01/07 16:14:33;;;;;;;20.97;10.30;;;;;0.50;96116.00;;;;8300652;28;20225;-76
2024/01/07 16:18:38;;;;;;;21.43;7.37;;;;;0.50;96117.00;;;;8299491;28;20297;-76
2024/01/07 16:22:42;;;;;;;29.70;10.93;;;;;0.40;96127.00;;;;8297913;28;20206;-77
2024/01/07 16:26:45;;;;;;;12.90;7.37;;;;;0.40;96133.00;;;;8301162;28;20527;-77
2024/01/07 16:30:49;;;;;;;24.33;9.27;;;;;0.30;96137.00;;;;8300534;28;20200;-76
2024/01/07 16:34:55;;;;;;;23.43;8.73;;;;;0.30;96139.00;;;;8304753;28;20236;-77
2024/01/07 16:39:01;;;;;;;15.10;6.67;;;;;0.30;96135.00;;;;8300869;28;20181;-78
2024/01/07 16:43:04;;;;;;;23.33;9.50;;;;;0.20;96145.00;;;;8299577;28;20273;-76
2024/01/07 16:47:09;;;;;;;15.67;9.00;;;;;0.20;96157.00;;;;8299362;28;20291;-84
2024/01/07 16:51:14;;;;;;;27.37;11.67;;;;;0.20;96154.00;;;;8300407;28;20201;-83
2024/01/07 16:55:17;;;;;;;21.70;10.13;;;;;0.20;96160.00;;;;8300094;28;20216;-83
2024/01/07 16:59:20;;;;;;;15.47;7.93;;;;;0.20;96171.00;;;;8300782;28;20582;-85
2024/01/07 17:03:24;;;;;;;26.43;11.37;;;;;0.10;96164.00;;;;8299737;28;20559;-86
2024/01/07 17:07:30;;;;;;;16.57;8.10;;;;;0.10;96175.00;;;;8299523;28;20674;-79
2024/01/07 17:11:33;;;;;;;14.87;8.13;;;;;0.10;96174.00;;;;8300940;28;20273;-83
2024/01/07 17:15:38;;;;;;;16.00;7.80;;;;;0.10;96178.00;;;;8299438;28;20239;-84
2024/01/07 17:19:42;;;;;;;17.77;8.20;;;;;0.00;96186.00;;;;8299302;28;20196;-83
2024/01/07 17:23:51;;;;;;;17.90;10.20;;;;;0.00;96189.00;;;;8299655;28;20245;-79
2024/01/07 17:27:54;;;;;;;21.90;8.77;;;;;0.00;96198.00;;;;8299882;28;20187;-81
2024/01/07 17:31:57;;;;;;;14.50;8.07;;;;;0.00;96208.00;;;;8298756;28;20200;-82
2024/01/07 17:36:00;;;;;;;16.47;7.20;;;;;-0.10;96214.00;;;;8297666;28;20250;-78
2024/01/07 17:40:06;;;;;;;18.90;9.00;;;;;-0.10;96228.00;;;;8299054;28;20229;-81
2024/01/07 17:44:10;;;;;;;15.93;7.83;;;;;-0.10;96222.00;;;;8299636;28;20194;-78
2024/01/07 17:48:14;;;;;;;11.53;6.53;;;;;-0.20;96227.00;;;;8297955;28;20196;-79
2024/01/07 17:52:17;;;;;;;15.67;7.87;;;;;-0.20;96229.00;;;;8299622;28;20190;-78
2024/01/07 17:56:22;;;;;;;13.73;7.80;;;;;-0.20;96232.00;;;;8298158;28;20632;-76
2024/01/07 18:00:25;;;;;;;14.87;8.50;;;;;-0.20;96237.00;;;;8299166;28;20231;-79
2024/01/07 18:04:28;;;;;;;19.27;8.90;;;;;-0.20;96245.00;;;;8299578;28;20234;-77
2024/01/07 18:08:32;;;;;;;12.30;6.17;;;;;-0.30;96246.00;;;;8297997;28;20314;-75
2024/01/07 18:12:46;;;;;;;16.50;8.20;;;;;-0.30;96248.00;;;;8298887;28;20224;-76
2024/01/07 18:16:51;;;;;;;9.77;6.13;;;;;-0.40;96250.00;;;;8297871;28;20249;-74
2024/01/07 18:20:56;;;;;;;14.90;7.97;;;;;-0.40;96246.00;;;;8299205;28;20185;-76
2024/01/07 18:24:59;;;;;;;13.23;8.20;;;;;-0.40;96249.00;;;;8297276;28;20199;-76
2024/01/07 18:29:03;;;;;;;13.60;7.43;;;;;-0.40;96249.00;;;;8297660;28;20578;-75
2024/01/07 18:33:07;;;;;;;11.07;7.13;;;;;-0.40;96264.00;;;;8297203;28;20225;-76
2024/01/07 18:37:10;;;;;;;11.20;6.37;;;;;-0.50;96261.00;;;;8298224;28;20202;-75
2024/01/07 18:41:18;;;;;;;7.63;6.07;;;;;-0.50;96259.00;;;;8297873;28;20210;-73
2024/01/07 18:45:27;;;;;;;12.73;6.03;;;;;-0.60;96272.00;;;;8296213;28;20192;-74
2024/01/07 18:49:30;;;;;;;9.43;5.97;;;;;-0.60;96275.00;;;;8297472;28;20194;-74
2024/01/07 18:53:33;;;;;;;11.43;7.33;;;;;-0.70;96290.00;;;;8298177;28;20232;-75
2024/01/07 18:57:36;;;;;;;9.07;5.90;;;;;-0.80;96286.00;;;;8299936;28;20195;-76
2024/01/07 19:01:40;;;;;;;13.47;7.03;;;;;-0.80;96286.00;;;;8298950;28;20240;-75
2024/01/07 19:05:48;;;;;;;12.53;6.83;;;;;-0.90;96292.00;;;;8302885;28;20594;-72
2024/01/07 19:09:51;;;;;;;12.70;7.20;;;;;-0.90;96296.00;;;;8303129;28;20249;-74
2024/01/07 19:13:54;;;;;;;11.07;5.70;;;;;-0.80;96310.00;;;;8301073;28;20227;-75
2024/01/07 19:17:59;;;;;;;9.60;6.53;;;;;-0.80;96303.00;;;;8302241;28;20626;-74
2024/01/07 19:22:03;;;;;;;11.07;6.63;;;;;-0.80;96313.00;;;;8302980;28;20240;-74
2024/01/07 19:26:06;;;;;;;16.30;6.37;;;;;-0.80;96305.00;;;;8303158;28;20634;-75
2024/01/07 19:30:10;;;;;;;10.13;4.40;;;;;-0.80;96325.00;;;;8303360;28;20719;-74
2024/01/07 19:34:15;;;;;;;8.77;5.70;;;;;-0.90;96325.00;;;;8303357;28;20697;-74
2024/01/07 19:38:18;;;;;;;4.80;3.30;;;;;-0.90;96329.00;;;;8302525;28;20193;-75
2024/01/07 19:42:21;;;;;;;8.07;5.93;;;;;-1.00;96333.00;;;;8301275;28;20202;-73
2024/01/07 19:46:25;;;;;;;10.03;6.07;;;;;-1.10;96338.00;;;;8301508;28;20290;-74
2024/01/07 19:50:30;;;;;;;8.07;5.50;;;;;-1.10;96341.00;;;;8302165;28;20193;-75
2024/01/07 19:54:33;;;;;;;9.70;5.87;;;;;-1.20;96342.00;;;;8301717;28;20659;-75
2024/01/07 19:58:36;;;;;;;6.27;4.30;;;;;-1.20;96347.00;;;;8301561;28;20258;-75
2024/01/07 20:02:39;;;;;;;9.50;6.47;;;;;-1.40;96342.00;;;;8301435;28;20755;-75
2024/01/07 20:06:44;;;;;;;8.33;6.23;;;;;-1.50;96354.00;;;;8301520;28;20243;-75
2024/01/07 20:10:48;;;;;;;6.73;4.33;;;;;-1.70;96351.00;;;;8301289;28;20226;-74